createdAt,value
2019-02-08T00:01:02.707Z,-3.80
2019-02-08T00:03:30.126Z,-3.80
2019-02-08T00:05:56.489Z,-3.80
2019-02-08T00:08:22.838Z,-3.80
2019-02-08T00:10:49.191Z,-3.80
2019-02-08T00:13:15.513Z,-3.70
2019-02-08T00:15:41.858Z,-3.70
2019-02-08T00:18:08.365Z,-3.80
2019-02-08T00:20:34.714Z,-3.80
2019-02-08T00:23:01.042Z,-3.70
2019-02-08T00:25:27.280Z,-3.70
2019-02-08T00:27:53.910Z,-3.70
2019-02-08T00:30:22.853Z,-3.80
2019-02-08T00:32:49.268Z,-3.70
2019-02-08T00:35:15.817Z,-3.70
2019-02-08T00:37:43.166Z,-3.70
2019-02-08T00:40:12.812Z,-3.80
2019-02-08T00:42:39.263Z,-3.80
2019-02-08T00:45:09.169Z,-3.80
2019-02-08T00:47:35.770Z,-3.80
2019-02-08T00:50:06.038Z,-3.80
2019-02-08T00:52:32.365Z,-3.90
2019-02-08T00:54:59.449Z,-3.80
2019-02-08T00:57:25.783Z,-3.80
2019-02-08T00:59:52.126Z,-3.80
2019-02-08T01:02:18.470Z,-3.80
2019-02-08T01:04:44.808Z,-3.90
2019-02-08T01:07:11.670Z,-3.90
2019-02-08T01:09:38.010Z,-3.90
2019-02-08T01:12:04.360Z,-3.90
2019-02-08T01:14:30.697Z,-3.90
2019-02-08T01:16:57.019Z,-3.90
2019-02-08T01:19:23.266Z,-3.90
2019-02-08T01:21:50.691Z,-3.90
2019-02-08T01:24:17.018Z,-3.90
2019-02-08T01:26:43.251Z,-4.00
2019-02-08T01:29:09.498Z,-4.00
2019-02-08T01:31:35.731Z,-4.00
2019-02-08T01:34:02.052Z,-4.00
2019-02-08T01:36:28.391Z,-4.10
2019-02-08T01:38:54.636Z,-4.10
2019-02-08T01:41:20.880Z,-4.20
2019-02-08T01:43:47.131Z,-4.20
2019-02-08T01:46:13.369Z,-4.20
2019-02-08T01:48:39.602Z,-4.30
2019-02-08T01:51:05.870Z,-4.30
2019-02-08T01:53:32.164Z,-4.40
2019-02-08T01:55:58.398Z,-4.50
2019-02-08T01:58:24.748Z,-4.50
2019-02-08T02:00:50.973Z,-4.60
2019-02-08T02:03:17.212Z,-4.60
2019-02-08T02:05:57.623Z,-4.60
2019-02-08T02:08:23.854Z,-4.60
2019-02-08T02:10:50.093Z,-4.60
2019-02-08T02:13:16.430Z,-4.60
2019-02-08T02:15:42.712Z,-4.60
2019-02-08T02:18:09.134Z,-4.60
2019-02-08T02:20:37.383Z,-4.60
2019-02-08T02:23:04.801Z,-4.60
2019-02-08T02:25:31.200Z,-4.50
2019-02-08T02:27:57.431Z,-4.50
2019-02-08T02:30:30.097Z,-4.60
2019-02-08T02:32:56.409Z,-4.60
2019-02-08T02:35:22.643Z,-4.60
2019-02-08T02:37:48.861Z,-4.70
2019-02-08T02:40:17.858Z,-4.80
2019-02-08T02:42:44.173Z,-4.80
2019-02-08T02:45:17.114Z,-4.90
2019-02-08T02:47:43.446Z,-5.00
2019-02-08T02:50:10.682Z,-5.10
2019-02-08T02:52:37.282Z,-5.10
2019-02-08T02:55:05.701Z,-5.20
2019-02-08T02:57:33.013Z,-5.20
2019-02-08T02:59:59.225Z,-5.30
2019-02-08T03:02:25.447Z,-5.30
2019-02-08T03:04:51.777Z,-5.40
2019-02-08T03:07:18.102Z,-5.40
2019-02-08T03:09:44.437Z,-5.40
2019-02-08T03:12:10.691Z,-5.40
2019-02-08T03:14:37.010Z,-5.40
2019-02-08T03:17:03.279Z,-5.40
2019-02-08T03:19:29.515Z,-5.40
2019-02-08T03:21:55.754Z,-5.50
2019-02-08T03:24:21.979Z,-5.50
2019-02-08T03:26:48.202Z,-5.60
2019-02-08T03:29:14.643Z,-5.60
2019-02-08T03:31:40.914Z,-5.60
2019-02-08T03:34:07.161Z,-5.70
2019-02-08T03:36:33.370Z,-5.80
2019-02-08T03:38:59.605Z,-5.80
2019-02-08T03:41:25.835Z,-5.90
2019-02-08T03:43:52.158Z,-5.90
2019-02-08T03:46:18.385Z,-5.90
2019-02-08T03:48:44.660Z,-6.00
2019-02-08T03:51:10.942Z,-6.10
2019-02-08T03:53:37.201Z,-6.10
2019-02-08T03:56:03.550Z,-6.10
2019-02-08T03:58:29.768Z,-6.20
2019-02-08T04:01:00.735Z,-6.20
2019-02-08T04:03:27.076Z,-6.30
2019-02-08T04:05:53.304Z,-6.30
2019-02-08T04:08:19.532Z,-6.30
2019-02-08T04:10:45.795Z,-6.30
2019-02-08T04:13:12.101Z,-6.40
2019-02-08T04:15:38.418Z,-6.40
2019-02-08T04:18:04.652Z,-6.50
2019-02-08T04:20:30.881Z,-6.50
2019-02-08T04:22:57.219Z,-6.40
2019-02-08T04:25:24.263Z,-6.30
2019-02-08T04:27:50.776Z,-6.20
2019-02-08T04:30:21.981Z,-6.20
2019-02-08T04:32:48.277Z,-6.00
2019-02-08T04:35:14.807Z,-5.90
2019-02-08T04:37:41.121Z,-5.90
2019-02-08T04:40:16.102Z,-5.80
2019-02-08T04:42:42.414Z,-5.90
2019-02-08T04:45:09.440Z,-5.90
2019-02-08T04:47:35.673Z,-6.00
2019-02-08T04:50:04.405Z,-6.00
2019-02-08T04:52:30.626Z,-6.00
2019-02-08T04:54:56.890Z,-6.00
2019-02-08T04:57:23.115Z,-6.00
2019-02-08T04:59:49.465Z,-6.10
2019-02-08T05:02:16.950Z,-6.20
2019-02-08T05:04:43.238Z,-6.20
2019-02-08T05:07:09.470Z,-6.30
2019-02-08T05:09:35.813Z,-6.40
2019-02-08T05:12:02.147Z,-6.40
2019-02-08T05:14:28.989Z,-6.50
2019-02-08T05:16:55.219Z,-6.50
2019-02-08T05:19:21.451Z,-6.50
2019-02-08T05:21:47.790Z,-6.60
2019-02-08T05:24:14.041Z,-6.60
2019-02-08T05:26:41.384Z,-6.60
2019-02-08T05:29:07.615Z,-6.60
2019-02-08T05:31:33.870Z,-6.60
2019-02-08T05:34:00.188Z,-6.50
2019-02-08T05:36:26.480Z,-6.50
2019-02-08T05:38:52.725Z,-6.50
2019-02-08T05:41:19.065Z,-6.50
2019-02-08T05:43:45.387Z,-6.50
2019-02-08T05:46:11.629Z,-6.50
2019-02-08T05:48:37.853Z,-6.50
2019-02-08T05:51:04.187Z,-6.40
2019-02-08T05:53:30.525Z,-6.40
2019-02-08T05:55:58.988Z,-6.50
2019-02-08T05:58:25.228Z,-6.40
2019-02-08T06:00:53.361Z,-6.40
2019-02-08T06:03:19.577Z,-6.40
2019-02-08T06:05:45.801Z,-6.40
2019-02-08T06:08:12.205Z,-6.50
2019-02-08T06:10:38.431Z,-6.50
2019-02-08T06:13:05.767Z,-6.50
2019-02-08T06:15:32.094Z,-6.50
2019-02-08T06:17:59.425Z,-6.50
2019-02-08T06:20:25.858Z,-6.60
2019-02-08T06:22:52.107Z,-6.60
2019-02-08T06:25:19.836Z,-6.60
2019-02-08T06:27:46.144Z,-6.60
2019-02-08T06:30:18.583Z,-6.60
2019-02-08T06:32:44.891Z,-6.60
2019-02-08T06:35:12.517Z,-6.60
2019-02-08T06:37:44.198Z,-6.60
2019-02-08T06:40:13.328Z,-6.60
2019-02-08T06:42:39.662Z,-6.60
2019-02-08T06:45:09.393Z,-6.70
2019-02-08T06:47:35.624Z,-6.70
2019-02-08T06:50:03.674Z,-6.80
2019-02-08T06:52:30.022Z,-6.90
2019-02-08T06:54:57.739Z,-7.00
2019-02-08T06:57:26.047Z,-7.10
2019-02-08T06:59:54.272Z,-7.20
2019-02-08T07:02:22.416Z,-7.20
2019-02-08T07:05:09.040Z,-7.30
2019-02-08T07:07:49.225Z,-7.30
2019-02-08T07:10:17.462Z,-7.30
2019-02-08T07:12:45.685Z,-7.30
2019-02-08T07:15:16.333Z,-7.40
2019-02-08T07:17:47.274Z,-7.50
2019-02-08T07:20:24.408Z,-7.50
2019-02-08T07:22:52.562Z,-7.60
2019-02-08T07:25:20.706Z,-7.60
2019-02-08T07:27:49.197Z,-7.60
2019-02-08T07:30:22.341Z,-7.70
2019-02-08T07:32:51.629Z,-7.70
2019-02-08T07:35:19.920Z,-7.70
2019-02-08T07:38:04.854Z,-7.80
2019-02-08T07:40:36.874Z,-7.80
2019-02-08T07:43:20.584Z,-7.80
2019-02-08T07:45:54.748Z,-7.80
2019-02-08T07:48:22.889Z,-7.80
2019-02-08T07:50:56.801Z,-7.80
2019-02-08T07:53:36.689Z,-7.80
2019-02-08T07:56:10.731Z,-7.80
2019-02-08T07:58:38.992Z,-7.70
2019-02-08T08:01:07.213Z,-7.70
2019-02-08T08:03:41.161Z,-7.60
2019-02-08T08:06:18.223Z,-7.60
2019-02-08T08:08:59.657Z,-7.60
2019-02-08T08:11:36.610Z,-7.50
2019-02-08T08:14:08.094Z,-7.50
2019-02-08T08:16:36.289Z,-7.50
2019-02-08T08:19:19.541Z,-7.50
2019-02-08T08:22:02.973Z,-7.50
2019-02-08T08:24:37.509Z,-7.50
2019-02-08T08:27:14.624Z,-7.40
2019-02-08T08:29:51.534Z,-7.30
2019-02-08T08:32:19.660Z,-7.30
2019-02-08T08:34:55.827Z,-7.20
2019-02-08T08:37:57.844Z,-7.20
2019-02-08T08:40:36.900Z,-7.20
2019-02-08T08:43:22.495Z,-7.20
2019-02-08T08:46:12.331Z,-7.10
2019-02-08T08:48:54.537Z,-7.00
2019-02-08T08:51:45.966Z,-7.00
2019-02-08T08:54:24.807Z,-7.00
2019-02-08T08:56:54.921Z,-6.90
2019-02-08T08:59:36.625Z,-6.80
2019-02-08T09:02:12.691Z,-6.80
2019-02-08T09:04:59.438Z,-6.80
2019-02-08T09:07:35.696Z,-6.70
2019-02-08T09:10:28.898Z,-6.70
2019-02-08T09:13:21.937Z,-6.70
2019-02-08T09:15:57.950Z,-6.70
2019-02-08T09:19:03.103Z,-6.60
2019-02-08T09:21:39.379Z,-6.50
2019-02-08T09:24:15.444Z,-6.30
2019-02-08T09:26:54.562Z,-6.20
2019-02-08T09:29:24.722Z,-6.10
2019-02-08T09:32:18.158Z,-6.00
2019-02-08T09:35:21.709Z,-5.90
2019-02-08T09:38:11.466Z,-5.80
2019-02-08T09:40:50.646Z,-5.90
2019-02-08T09:43:39.695Z,-5.80
2019-02-08T09:46:32.366Z,-5.70
2019-02-08T09:49:22.122Z,-5.60
2019-02-08T09:52:11.416Z,-5.60
2019-02-08T09:54:56.654Z,-5.60
2019-02-08T09:57:45.141Z,-5.80
2019-02-08T10:00:24.059Z,-5.80
2019-02-08T10:03:09.507Z,-5.80
2019-02-08T10:05:57.641Z,-5.80
2019-02-08T10:09:03.853Z,-5.70
2019-02-08T10:11:46.173Z,-5.70
2019-02-08T10:14:19.006Z,-5.50
2019-02-08T10:16:52.121Z,-5.50
2019-02-08T10:19:55.907Z,-5.40
2019-02-08T10:22:28.767Z,-5.30
2019-02-08T10:25:13.633Z,-5.20
2019-02-08T10:27:49.760Z,-5.10
2019-02-08T10:30:32.139Z,-4.90
2019-02-08T10:33:18.826Z,-4.80
2019-02-08T10:36:24.033Z,-4.70
2019-02-08T10:39:12.065Z,-4.50
2019-02-08T10:41:44.893Z,-4.40
2019-02-08T10:44:37.941Z,-4.30
2019-02-08T10:47:24.793Z,-4.10
2019-02-08T10:50:09.712Z,-4.00
2019-02-08T10:53:01.143Z,-3.90
2019-02-08T10:55:33.933Z,-3.90
2019-02-08T10:58:15.809Z,-3.90
2019-02-08T11:01:04.004Z,-3.90
2019-02-08T11:03:43.231Z,-3.90
2019-02-08T11:06:29.925Z,-3.90
2019-02-08T11:09:22.576Z,-3.90
2019-02-08T11:12:10.354Z,-3.90
2019-02-08T11:15:00.241Z,-3.80
2019-02-08T11:18:02.727Z,-3.70
2019-02-08T11:20:28.967Z,-3.60
2019-02-08T11:22:55.369Z,-3.50
2019-02-08T11:25:21.598Z,-3.40
2019-02-08T11:27:47.836Z,-3.20
2019-02-08T11:30:15.953Z,-3.10
2019-02-08T11:32:43.523Z,-3.00
2019-02-08T11:35:10.046Z,-2.90
2019-02-08T11:37:36.263Z,-2.80
2019-02-08T11:40:09.475Z,-2.80
2019-02-08T11:42:35.836Z,-2.60
2019-02-08T11:45:04.145Z,-2.50
2019-02-08T11:47:30.445Z,-2.40
2019-02-08T11:49:56.669Z,-2.30
2019-02-08T11:52:22.897Z,-2.10
2019-02-08T11:54:49.137Z,-2.00
2019-02-08T11:57:15.371Z,-1.80
2019-02-08T11:59:41.587Z,-1.80
2019-02-08T12:02:13.352Z,-1.70
2019-02-08T12:04:39.766Z,-1.60
2019-02-08T12:07:05.985Z,-1.40
2019-02-08T12:09:32.211Z,-1.30
2019-02-08T12:11:58.448Z,-1.10
2019-02-08T12:14:24.763Z,-1.00
2019-02-08T12:16:50.969Z,-0.90
2019-02-08T12:19:17.270Z,-0.80
2019-02-08T12:21:43.588Z,-0.70
2019-02-08T12:24:09.791Z,-0.70
2019-02-08T12:26:37.847Z,-0.70
2019-02-08T12:29:04.113Z,-0.60
2019-02-08T12:31:31.348Z,-0.70
2019-02-08T12:33:57.597Z,-0.70
2019-02-08T12:36:25.722Z,-0.80
2019-02-08T12:38:51.903Z,-0.90
2019-02-08T12:41:18.138Z,-0.90
2019-02-08T12:43:44.361Z,-0.90
2019-02-08T12:46:10.575Z,-0.90
2019-02-08T12:48:36.807Z,-0.90
2019-02-08T12:51:03.104Z,-0.80
2019-02-08T12:53:30.443Z,-0.80
2019-02-08T12:55:56.698Z,-0.80
2019-02-08T12:58:23.044Z,-0.80
2019-02-08T13:00:49.346Z,-0.80
2019-02-08T13:03:15.699Z,-0.80
2019-02-08T13:05:42.029Z,-0.80
2019-02-08T13:08:08.255Z,-0.80
2019-02-08T13:10:34.489Z,-0.80
2019-02-08T13:13:01.027Z,-0.80
2019-02-08T13:15:27.241Z,-0.80
2019-02-08T13:17:53.492Z,-0.70
2019-02-08T13:20:20.815Z,-0.60
2019-02-08T13:22:47.209Z,-0.50
2019-02-08T13:25:15.469Z,-0.40
2019-02-08T13:27:41.709Z,-0.40
2019-02-08T13:30:25.749Z,-0.30
2019-02-08T13:32:52.117Z,-0.30
2019-02-08T13:35:18.447Z,-0.30
2019-02-08T13:37:44.783Z,-0.30
2019-02-08T13:40:16.922Z,-0.30
2019-02-08T13:42:43.242Z,-0.30
2019-02-08T13:45:11.169Z,-0.40
2019-02-08T13:47:37.399Z,-0.40
2019-02-08T13:50:07.533Z,-0.40
2019-02-08T13:52:33.780Z,-0.40
2019-02-08T13:55:00.190Z,-0.40
2019-02-08T13:57:28.388Z,-0.40
2019-02-08T13:59:55.713Z,-0.50
2019-02-08T14:02:21.933Z,-0.50
2019-02-08T14:04:48.197Z,-0.50
2019-02-08T14:07:14.469Z,-0.50
2019-02-08T14:09:40.685Z,-0.50
2019-02-08T14:12:06.914Z,-0.40
2019-02-08T14:14:33.138Z,-0.30
2019-02-08T14:16:59.377Z,-0.30
2019-02-08T14:19:25.614Z,-0.40
2019-02-08T14:21:51.876Z,-0.50
2019-02-08T14:24:18.170Z,-0.60
2019-02-08T14:26:44.500Z,-0.60
2019-02-08T14:29:10.813Z,-0.70
2019-02-08T14:31:37.037Z,-0.80
2019-02-08T14:34:03.289Z,-0.90
2019-02-08T14:36:29.526Z,-1.00
2019-02-08T14:38:55.733Z,-1.10
2019-02-08T14:41:22.045Z,-1.20
2019-02-08T14:43:48.407Z,-1.30
2019-02-08T14:46:14.744Z,-1.30
2019-02-08T14:48:40.994Z,-1.40
2019-02-08T14:51:07.255Z,-1.40
2019-02-08T14:53:33.575Z,-1.40
2019-02-08T14:55:59.798Z,-1.40
2019-02-08T14:58:26.097Z,-1.50
2019-02-08T15:00:52.310Z,-1.50
2019-02-08T15:03:18.521Z,-1.50
2019-02-08T15:05:45.096Z,-1.40
2019-02-08T15:08:11.345Z,-1.40
2019-02-08T15:10:43.950Z,-1.50
2019-02-08T15:13:10.275Z,-1.50
2019-02-08T15:15:36.492Z,-1.50
2019-02-08T15:18:03.426Z,-1.60
2019-02-08T15:20:34.337Z,-1.60
2019-02-08T15:23:00.666Z,-1.60
2019-02-08T15:25:26.894Z,-1.70
2019-02-08T15:27:53.117Z,-1.70
2019-02-08T15:30:28.285Z,-1.70
2019-02-08T15:32:54.544Z,-1.70
2019-02-08T15:35:22.877Z,-1.80
2019-02-08T15:37:49.109Z,-1.80
2019-02-08T15:40:42.869Z,-1.80
2019-02-08T15:43:10.690Z,-1.80
2019-02-08T15:45:37.721Z,-1.90
2019-02-08T15:48:04.151Z,-2.00
2019-02-08T15:50:30.514Z,-2.00
2019-02-08T15:52:56.840Z,-2.00
2019-02-08T15:55:38.462Z,-2.10
2019-02-08T15:58:04.775Z,-2.10
2019-02-08T16:00:31.063Z,-2.10
2019-02-08T16:02:57.814Z,-2.10
2019-02-08T17:01:37.257Z,12.20
2019-02-08T17:04:03.556Z,10.50
2019-02-08T17:06:29.781Z,8.90
2019-02-08T17:08:56.041Z,7.50
2019-02-08T17:11:22.668Z,6.30
2019-02-08T17:13:48.890Z,5.20
2019-02-08T17:16:15.216Z,4.30
2019-02-08T17:18:41.436Z,3.50
2019-02-08T17:21:07.650Z,2.70
2019-02-08T17:23:33.877Z,2.20
2019-02-08T17:26:00.085Z,1.80
2019-02-08T17:28:26.320Z,1.50
2019-02-08T17:30:52.565Z,1.20
2019-02-08T17:33:18.917Z,1.00
2019-02-08T17:35:45.253Z,0.80
2019-02-08T17:38:11.549Z,0.70
2019-02-08T17:40:40.515Z,0.60
2019-02-08T17:43:06.726Z,0.50
2019-02-08T17:45:32.948Z,0.40
2019-02-08T17:47:59.660Z,0.30
2019-02-08T17:50:28.100Z,0.20
2019-02-08T17:52:54.333Z,0.10
2019-02-08T17:55:27.260Z,0.10
2019-02-08T17:57:53.571Z,0.10
2019-02-08T18:00:24.309Z,0.10
2019-02-08T18:02:50.520Z,0.00
2019-02-08T18:05:16.745Z,0.00
2019-02-08T18:07:43.044Z,0.10
2019-02-08T18:10:18.965Z,0.20
2019-02-08T18:12:45.191Z,0.20
2019-02-08T18:15:17.680Z,0.30
2019-02-08T18:17:43.910Z,0.30
2019-02-08T18:20:16.605Z,0.20
2019-02-08T18:22:42.814Z,0.30
2019-02-08T18:25:09.430Z,0.20
2019-02-08T18:27:35.653Z,0.30
2019-02-08T18:30:02.361Z,0.40
2019-02-08T18:32:28.581Z,0.40
2019-02-08T18:34:54.804Z,0.40
2019-02-08T18:37:21.013Z,0.40
2019-02-08T18:39:47.306Z,0.40
2019-02-08T18:42:13.528Z,0.40
2019-02-08T18:44:39.844Z,0.40
2019-02-08T18:47:06.157Z,0.40
2019-02-08T18:49:33.482Z,0.40
2019-02-08T18:51:59.700Z,0.40
2019-02-08T18:54:25.918Z,0.40
2019-02-08T18:56:52.144Z,0.50
2019-02-08T18:59:18.361Z,0.60
2019-02-08T19:01:44.585Z,0.60
2019-02-08T19:04:10.813Z,0.50
2019-02-08T19:06:37.022Z,0.50
2019-02-08T19:09:05.336Z,0.50
2019-02-08T19:11:32.661Z,0.50
2019-02-08T19:13:58.872Z,0.60
2019-02-08T19:16:25.094Z,0.60
2019-02-08T19:18:51.319Z,0.60
2019-02-08T19:21:17.637Z,0.60
2019-02-08T19:23:43.851Z,0.70
2019-02-08T19:26:10.088Z,0.70
2019-02-08T19:28:36.385Z,0.60
2019-02-08T19:31:02.601Z,0.70
2019-02-08T19:33:28.827Z,0.70
2019-02-08T19:35:55.044Z,0.80
2019-02-08T19:38:22.381Z,0.70
2019-02-08T19:40:48.608Z,0.70
2019-02-08T19:43:14.902Z,0.70
2019-02-08T19:45:41.257Z,0.80
2019-02-08T19:48:08.790Z,0.70
2019-02-08T19:50:40.551Z,0.70
2019-02-08T19:53:07.164Z,0.80
2019-02-08T19:55:33.393Z,0.70
2019-02-08T19:57:59.802Z,0.80
2019-02-08T20:00:28.928Z,0.70
2019-02-08T20:02:55.460Z,0.70
2019-02-08T20:05:22.969Z,0.80
2019-02-08T20:07:49.685Z,0.80
2019-02-08T20:10:21.989Z,0.80
2019-02-08T20:12:48.240Z,0.70
2019-02-08T20:15:16.417Z,0.70
2019-02-08T20:17:42.636Z,0.70
2019-02-08T20:20:08.847Z,0.80
2019-02-08T20:22:35.064Z,0.80
2019-02-08T20:25:01.292Z,0.80
2019-02-08T20:27:27.619Z,0.80
2019-02-08T20:29:53.844Z,0.90
2019-02-08T20:32:20.081Z,0.90
2019-02-08T20:34:46.293Z,0.90
2019-02-08T20:37:12.512Z,0.90
2019-02-08T20:39:38.730Z,0.90
2019-02-08T20:42:04.969Z,0.90
2019-02-08T20:44:31.269Z,0.90
2019-02-08T20:46:57.557Z,0.90
2019-02-08T20:49:23.776Z,0.90
2019-02-08T20:51:50.097Z,0.90
2019-02-08T20:54:16.334Z,1.00
2019-02-08T20:56:42.710Z,1.10
2019-02-08T20:59:08.929Z,1.10
2019-02-08T21:01:35.157Z,1.00
2019-02-08T21:04:01.374Z,1.10
2019-02-08T21:06:27.646Z,1.10
2019-02-08T21:08:53.957Z,1.20
2019-02-08T21:11:20.169Z,1.20
2019-02-08T21:13:46.448Z,1.20
2019-02-08T21:16:12.664Z,1.20
2019-02-08T21:18:38.956Z,1.20
2019-02-08T21:21:05.172Z,1.20
2019-02-08T21:23:31.421Z,1.20
2019-02-08T21:25:57.641Z,1.20
2019-02-08T21:28:23.873Z,1.30
2019-02-08T21:30:50.097Z,1.30
2019-02-08T21:33:16.313Z,1.30
2019-02-08T21:35:42.541Z,1.30
2019-02-08T21:38:08.787Z,1.30
2019-02-08T21:40:35.092Z,1.30
2019-02-08T21:43:01.317Z,1.40
2019-02-08T21:45:29.541Z,1.50
2019-02-08T21:47:55.632Z,1.50
2019-02-08T21:50:22.037Z,1.50
2019-02-08T21:52:48.255Z,1.40
2019-02-08T21:55:16.671Z,1.40
2019-02-08T21:57:42.913Z,1.40
2019-02-08T22:00:17.629Z,1.30
2019-02-08T22:02:43.849Z,1.40
2019-02-08T22:05:10.106Z,1.30
2019-02-08T22:07:36.433Z,1.30
2019-02-08T22:10:05.666Z,1.20
2019-02-08T22:12:31.973Z,1.30
2019-02-08T22:14:58.249Z,1.30
2019-02-08T22:17:24.465Z,1.30
2019-02-08T22:19:50.683Z,1.30
2019-02-08T22:22:17.095Z,1.30
2019-02-08T22:24:43.300Z,1.30
2019-02-08T22:27:09.533Z,1.30
2019-02-08T22:29:35.769Z,1.30
2019-02-08T22:32:01.996Z,1.20
2019-02-08T22:34:28.212Z,1.20
2019-02-08T22:36:54.433Z,1.20
2019-02-08T22:39:20.637Z,1.30
2019-02-08T22:41:46.850Z,1.30
2019-02-08T22:44:13.073Z,1.40
2019-02-08T22:46:39.293Z,1.40
2019-02-08T22:49:05.509Z,1.30
2019-02-08T22:51:31.749Z,1.40
2019-02-08T22:53:58.044Z,1.40
2019-02-08T22:56:24.269Z,1.40
2019-02-08T22:58:50.504Z,1.40
2019-02-08T23:01:24.441Z,1.40
2019-02-08T23:03:50.692Z,1.40
2019-02-08T23:06:16.959Z,1.50
2019-02-08T23:08:43.190Z,1.50
2019-02-08T23:11:09.440Z,1.40
2019-02-08T23:13:35.677Z,1.50
2019-02-08T23:16:02.313Z,1.50
2019-02-08T23:18:28.625Z,1.50
2019-02-08T23:20:54.872Z,1.50
2019-02-08T23:23:21.084Z,1.50
2019-02-08T23:25:47.384Z,1.50
2019-02-08T23:28:13.683Z,1.50
2019-02-08T23:30:39.909Z,1.50
2019-02-08T23:33:06.137Z,1.50
2019-02-08T23:35:32.380Z,1.50
2019-02-08T23:37:58.592Z,1.50
2019-02-08T23:40:24.871Z,1.50
2019-02-08T23:42:51.181Z,1.50
2019-02-08T23:45:18.500Z,1.60
2019-02-08T23:47:44.728Z,1.60
2019-02-08T23:50:16.589Z,1.60
2019-02-08T23:52:42.900Z,1.60
2019-02-08T23:55:12.316Z,1.60
2019-02-08T23:57:38.625Z,1.60
